createdAt,value
2017-01-26T00:00:51.577Z,0
2017-01-26T00:01:51.463Z,0
2017-01-26T00:02:50.849Z,0
2017-01-26T00:03:50.467Z,0
2017-01-26T00:04:50.899Z,0
2017-01-26T00:05:51.708Z,0
2017-01-26T00:06:51.586Z,0
2017-01-26T00:07:50.966Z,0
2017-01-26T00:08:51.387Z,0
2017-01-26T00:09:51.812Z,0
2017-01-26T00:10:51.440Z,0
2017-01-26T00:11:51.708Z,0
2017-01-26T00:12:51.101Z,0
2017-01-26T00:13:51.114Z,0
2017-01-26T00:14:51.539Z,0
2017-01-26T00:15:51.565Z,0
2017-01-26T00:16:52.248Z,0
2017-01-26T00:17:52.010Z,0
2017-01-26T00:18:52.038Z,0
2017-01-26T00:19:51.662Z,0
2017-01-26T00:20:51.719Z,0
2017-01-26T00:21:52.352Z,0
2017-01-26T00:22:51.736Z,0
2017-01-26T00:23:51.765Z,0
2017-01-26T00:24:51.784Z,0
2017-01-26T00:25:51.830Z,0
2017-01-26T00:26:51.294Z,0
2017-01-26T00:27:51.472Z,0
2017-01-26T00:28:51.496Z,0
2017-01-26T00:29:51.525Z,0
2017-01-26T00:30:51.550Z,0
2017-01-26T00:31:51.429Z,0
2017-01-26T00:32:51.195Z,0
2017-01-26T00:33:52.016Z,0
2017-01-26T00:34:52.441Z,0
2017-01-26T00:35:52.068Z,0
2017-01-26T00:36:51.550Z,0
2017-01-26T00:37:52.122Z,0
2017-01-26T00:38:52.545Z,0
2017-01-26T00:39:52.172Z,0
2017-01-26T00:40:52.589Z,0
2017-01-26T00:41:52.078Z,0
2017-01-26T00:42:52.243Z,0
2017-01-26T00:43:52.667Z,0
2017-01-26T00:44:51.904Z,0
2017-01-26T00:45:51.528Z,0
2017-01-26T00:46:52.210Z,0
2017-01-26T00:47:51.578Z,0
2017-01-26T00:48:52.791Z,0
2017-01-26T00:49:52.028Z,0
2017-01-26T00:50:52.057Z,0
2017-01-26T00:51:52.716Z,0
2017-01-26T00:52:52.506Z,0
2017-01-26T00:53:52.120Z,0
2017-01-26T00:54:51.756Z,0
2017-01-26T00:55:52.580Z,0
2017-01-26T00:56:51.813Z,0
2017-01-26T00:57:53.276Z,0
2017-01-26T00:58:52.255Z,0
2017-01-26T00:59:52.290Z,0
2017-01-26T01:00:52.699Z,0
2017-01-26T01:01:52.724Z,0
2017-01-26T01:02:52.605Z,0
2017-01-26T01:03:52.386Z,0
2017-01-26T01:04:52.399Z,0
2017-01-26T01:05:52.815Z,0
2017-01-26T01:06:52.456Z,0
2017-01-26T01:07:52.334Z,0
2017-01-26T01:08:52.498Z,0
2017-01-26T01:09:52.530Z,0
2017-01-26T01:10:52.547Z,0
2017-01-26T01:11:52.579Z,0
2017-01-26T01:12:52.861Z,0
2017-01-26T01:13:52.629Z,0
2017-01-26T01:14:52.662Z,0
2017-01-26T01:15:53.463Z,0
2017-01-26T01:16:52.703Z,0
2017-01-26T01:17:53.232Z,0
2017-01-26T01:18:52.757Z,0
2017-01-26T01:19:53.181Z,0
2017-01-26T01:20:52.401Z,0
2017-01-26T01:21:53.232Z,0
2017-01-26T01:22:53.524Z,0
2017-01-26T01:23:53.281Z,0
2017-01-26T01:24:53.300Z,0
2017-01-26T01:25:53.731Z,0
2017-01-26T01:26:52.955Z,0
2017-01-26T01:27:53.631Z,0
2017-01-26T01:28:53.016Z,0
2017-01-26T01:29:53.429Z,0
2017-01-26T01:30:53.050Z,0
2017-01-26T01:31:53.078Z,0
2017-01-26T01:32:54.151Z,0
2017-01-26T01:33:53.528Z,0
2017-01-26T01:34:53.948Z,0
2017-01-26T01:35:53.973Z,0
2017-01-26T01:36:53.606Z,0
2017-01-26T01:37:53.223Z,0
2017-01-26T01:38:53.903Z,0
2017-01-26T01:39:52.890Z,0
2017-01-26T01:40:54.097Z,0
2017-01-26T01:41:53.322Z,0
2017-01-26T01:42:54.153Z,0
2017-01-26T01:43:53.635Z,0
2017-01-26T01:44:53.403Z,0
2017-01-26T01:45:53.824Z,0
2017-01-26T01:46:53.061Z,0
2017-01-26T01:47:53.478Z,0
2017-01-26T01:48:54.145Z,0
2017-01-26T01:49:53.925Z,0
2017-01-26T01:50:53.943Z,0
2017-01-26T01:51:53.580Z,0
2017-01-26T01:52:53.998Z,0
2017-01-26T01:53:53.877Z,0
2017-01-26T01:54:54.086Z,0
2017-01-26T01:55:53.288Z,0
2017-01-26T01:56:54.096Z,0
2017-01-26T01:57:54.125Z,0
2017-01-26T01:58:54.793Z,0
2017-01-26T01:59:53.386Z,0
2017-01-26T02:00:53.803Z,0
2017-01-26T02:01:54.219Z,0
2017-01-26T02:02:54.644Z,0
2017-01-26T02:03:54.121Z,0
2017-01-26T02:04:54.299Z,0
2017-01-26T02:05:53.935Z,0
2017-01-26T02:06:54.343Z,0
2017-01-26T02:07:53.988Z,0
2017-01-26T02:08:54.656Z,0
2017-01-26T02:09:54.025Z,0
2017-01-26T02:10:53.647Z,0
2017-01-26T02:11:54.475Z,0
2017-01-26T02:12:54.104Z,0
2017-01-26T02:13:55.029Z,0
2017-01-26T02:14:54.153Z,0
2017-01-26T02:15:54.570Z,0
2017-01-26T02:16:54.202Z,0
2017-01-26T02:17:54.227Z,0
2017-01-26T02:18:53.865Z,0
2017-01-26T02:19:54.525Z,0
2017-01-26T02:20:54.701Z,0
2017-01-26T02:21:54.320Z,0
2017-01-26T02:22:54.735Z,0
2017-01-26T02:23:54.375Z,0
2017-01-26T02:24:54.652Z,0
2017-01-26T02:25:54.817Z,0
2017-01-26T02:26:54.846Z,0
2017-01-26T02:27:54.466Z,0
2017-01-26T02:28:54.495Z,0
2017-01-26T02:29:55.572Z,0
2017-01-26T02:30:54.544Z,0
2017-01-26T02:31:54.969Z,0
2017-01-26T02:32:55.391Z,0
2017-01-26T02:33:54.624Z,0
2017-01-26T02:34:55.295Z,0
2017-01-26T02:35:54.678Z,0
2017-01-26T02:36:55.493Z,0
2017-01-26T02:37:55.534Z,0
2017-01-26T02:38:54.350Z,0
2017-01-26T02:39:55.427Z,0
2017-01-26T02:40:54.392Z,0
2017-01-26T02:41:54.823Z,0
2017-01-26T02:42:54.838Z,0
2017-01-26T02:43:54.910Z,0
2017-01-26T02:44:55.547Z,0
2017-01-26T02:45:55.719Z,0
2017-01-26T02:46:54.951Z,0
2017-01-26T02:47:54.972Z,0
2017-01-26T02:48:55.393Z,0
2017-01-26T02:49:55.671Z,0
2017-01-26T02:50:55.048Z,0
2017-01-26T02:51:55.863Z,0
2017-01-26T02:52:55.877Z,0
2017-01-26T02:53:55.521Z,0
2017-01-26T02:54:55.001Z,0
2017-01-26T02:55:55.569Z,0
2017-01-26T02:56:55.195Z,0
2017-01-26T02:57:54.820Z,0
2017-01-26T02:58:55.240Z,0
2017-01-26T02:59:56.164Z,0
2017-01-26T03:00:55.689Z,0
2017-01-26T03:01:55.319Z,0
2017-01-26T03:02:55.736Z,0
2017-01-26T03:03:54.967Z,0
2017-01-26T03:04:55.780Z,0
2017-01-26T03:05:56.065Z,0
2017-01-26T03:06:55.435Z,0
2017-01-26T03:07:55.867Z,0
2017-01-26T03:08:55.887Z,0
2017-01-26T03:09:55.510Z,0
2017-01-26T03:10:55.389Z,0
2017-01-26T03:11:55.561Z,0
2017-01-26T03:12:55.986Z,0
2017-01-26T03:13:56.011Z,0
2017-01-26T03:14:56.427Z,0
2017-01-26T03:15:56.319Z,0
2017-01-26T03:16:55.684Z,0
2017-01-26T03:17:56.112Z,0
2017-01-26T03:18:56.135Z,0
2017-01-26T03:19:55.762Z,0
2017-01-26T03:20:56.030Z,0
2017-01-26T03:21:55.835Z,0
2017-01-26T03:22:55.833Z,0
2017-01-26T03:23:55.861Z,0
2017-01-26T03:24:55.487Z,0
2017-01-26T03:25:56.157Z,0
2017-01-26T03:26:55.927Z,0
2017-01-26T03:27:56.351Z,0
2017-01-26T03:28:56.381Z,0
2017-01-26T03:29:55.609Z,0
2017-01-26T03:30:56.273Z,0
2017-01-26T03:31:56.450Z,0
2017-01-26T03:32:56.081Z,0
2017-01-26T03:33:56.102Z,0
2017-01-26T03:34:56.527Z,0
2017-01-26T03:35:57.048Z,0
2017-01-26T03:36:56.579Z,0
2017-01-26T03:37:56.211Z,0
2017-01-26T03:38:56.626Z,0
2017-01-26T03:39:56.651Z,0
2017-01-26T03:40:55.885Z,0
2017-01-26T03:41:57.338Z,0
2017-01-26T03:42:56.326Z,0
2017-01-26T03:43:56.351Z,0
2017-01-26T03:44:55.978Z,0
2017-01-26T03:45:57.196Z,0
2017-01-26T03:46:57.462Z,0
2017-01-26T03:47:56.453Z,0
2017-01-26T03:48:56.473Z,0
2017-01-26T03:49:56.507Z,0
2017-01-26T03:50:56.923Z,0
2017-01-26T03:51:57.210Z,0
2017-01-26T03:52:56.964Z,0
2017-01-26T03:53:56.994Z,0
2017-01-26T03:54:57.037Z,0
2017-01-26T03:55:56.246Z,0
2017-01-26T03:56:56.919Z,0
2017-01-26T03:57:56.700Z,0
2017-01-26T03:58:57.145Z,0
2017-01-26T03:59:56.351Z,0
2017-01-26T04:00:56.769Z,0
2017-01-26T04:01:57.687Z,0
2017-01-26T04:02:56.823Z,0
2017-01-26T04:03:56.840Z,0
2017-01-26T04:04:56.868Z,0
2017-01-26T04:05:56.889Z,0
2017-01-26T04:06:57.161Z,0
2017-01-26T04:07:56.546Z,0
2017-01-26T04:08:57.751Z,0
2017-01-26T04:09:57.776Z,0
2017-01-26T04:10:57.016Z,0
2017-01-26T04:11:56.644Z,0
2017-01-26T04:12:58.106Z,0
2017-01-26T04:13:56.691Z,0
2017-01-26T04:14:57.115Z,0
2017-01-26T04:15:57.132Z,0
2017-01-26T04:16:57.561Z,0
2017-01-26T04:17:57.830Z,0
2017-01-26T04:18:57.210Z,0
2017-01-26T04:19:56.836Z,0
2017-01-26T04:20:57.267Z,0
2017-01-26T04:21:58.076Z,0
2017-01-26T04:22:57.952Z,0
2017-01-26T04:23:57.722Z,0
2017-01-26T04:24:57.749Z,0
2017-01-26T04:25:56.987Z,0
2017-01-26T04:26:57.407Z,0
2017-01-26T04:27:57.304Z,0
2017-01-26T04:28:57.462Z,0
2017-01-26T04:29:57.482Z,0
2017-01-26T04:30:57.495Z,0
2017-01-26T04:31:57.931Z,0
2017-01-26T04:32:58.628Z,0
2017-01-26T04:33:57.976Z,0
2017-01-26T04:34:57.601Z,0
2017-01-26T04:35:57.230Z,0
2017-01-26T04:36:58.447Z,0
2017-01-26T04:37:57.785Z,0
2017-01-26T04:38:58.109Z,0
2017-01-26T04:39:58.124Z,0
2017-01-26T04:40:58.557Z,0
2017-01-26T04:41:58.190Z,0
2017-01-26T04:42:58.826Z,0
2017-01-26T04:43:58.215Z,0
2017-01-26T04:44:57.853Z,0
2017-01-26T04:45:57.477Z,0
2017-01-26T04:46:58.294Z,0
2017-01-26T04:47:58.595Z,0
2017-01-26T04:48:57.951Z,0
2017-01-26T04:49:57.968Z,0
2017-01-26T04:50:58.020Z,0
2017-01-26T04:51:58.026Z,0
2017-01-26T04:52:58.701Z,0
2017-01-26T04:53:58.471Z,0
2017-01-26T04:54:58.883Z,0
2017-01-26T04:55:58.516Z,0
2017-01-26T04:56:58.142Z,0
2017-01-26T04:57:58.418Z,0
2017-01-26T04:58:58.589Z,0
2017-01-26T04:59:58.616Z,0
2017-01-26T05:00:58.239Z,0
2017-01-26T05:01:58.665Z,0
2017-01-26T05:02:59.338Z,0
2017-01-26T05:03:59.128Z,0
2017-01-26T05:04:58.339Z,0
2017-01-26T05:05:57.967Z,0
2017-01-26T05:06:58.393Z,0
2017-01-26T05:07:58.810Z,0
2017-01-26T05:08:58.323Z,0
2017-01-26T05:09:58.071Z,0
2017-01-26T05:10:58.092Z,0
2017-01-26T05:11:59.308Z,0
2017-01-26T05:12:58.541Z,0
2017-01-26T05:13:58.814Z,0
2017-01-26T05:14:59.419Z,0
2017-01-26T05:15:58.216Z,0
2017-01-26T05:16:59.432Z,0
2017-01-26T05:17:59.053Z,0
2017-01-26T05:18:59.633Z,0
2017-01-26T05:19:58.313Z,0
2017-01-26T05:20:58.731Z,0
2017-01-26T05:21:58.768Z,0
2017-01-26T05:22:58.780Z,0
2017-01-26T05:23:59.061Z,0
2017-01-26T05:24:59.234Z,0
2017-01-26T05:25:58.859Z,0
2017-01-26T05:26:58.482Z,0
2017-01-26T05:27:58.512Z,0
2017-01-26T05:28:58.932Z,0
2017-01-26T05:29:59.598Z,0
2017-01-26T05:30:59.378Z,0
2017-01-26T05:31:59.403Z,0
2017-01-26T05:32:59.031Z,0
2017-01-26T05:33:59.449Z,0
2017-01-26T05:34:59.581Z,0
2017-01-26T05:35:58.733Z,0
2017-01-26T05:36:59.123Z,0
2017-01-26T05:37:59.547Z,0
2017-01-26T05:38:59.574Z,0
2017-01-26T05:39:59.849Z,0
2017-01-26T05:41:00.014Z,0
2017-01-26T05:41:59.646Z,0
2017-01-26T05:42:59.678Z,0
2017-01-26T05:43:59.716Z,0
2017-01-26T05:44:59.176Z,0
2017-01-26T05:45:59.352Z,0
2017-01-26T05:46:59.374Z,0
2017-01-26T05:48:00.187Z,0
2017-01-26T05:48:59.824Z,0
2017-01-26T05:50:00.100Z,0
2017-01-26T05:50:59.876Z,0
2017-01-26T05:51:59.501Z,0
2017-01-26T05:52:59.515Z,0
2017-01-26T05:53:59.540Z,0
2017-01-26T05:54:59.172Z,0
2017-01-26T05:55:59.862Z,0
2017-01-26T05:57:00.418Z,0
2017-01-26T05:58:00.043Z,0
2017-01-26T05:58:59.275Z,0
2017-01-26T06:00:00.490Z,0
2017-01-26T06:00:59.976Z,0
2017-01-26T06:02:00.145Z,0
2017-01-26T06:02:59.769Z,0
2017-01-26T06:03:59.798Z,0
2017-01-26T06:05:00.611Z,0
2017-01-26T06:06:00.892Z,0
2017-01-26T06:06:59.872Z,0
2017-01-26T06:08:00.686Z,0
2017-01-26T06:08:59.522Z,0
2017-01-26T06:10:00.346Z,0
2017-01-26T06:11:00.608Z,0
2017-01-26T06:11:59.992Z,0
2017-01-26T06:13:00.816Z,0
2017-01-26T06:14:00.433Z,0
2017-01-26T06:15:00.868Z,0
2017-01-26T06:16:00.340Z,0
2017-01-26T06:16:59.724Z,0
2017-01-26T06:18:00.138Z,0
2017-01-26T06:18:59.774Z,0
2017-01-26T06:20:00.587Z,0
2017-01-26T06:21:00.464Z,0
2017-01-26T06:22:00.248Z,0
2017-01-26T06:23:00.661Z,0
2017-01-26T06:24:00.287Z,0
2017-01-26T06:25:00.314Z,0
2017-01-26T06:26:00.595Z,0
2017-01-26T06:27:00.760Z,0
2017-01-26T06:28:00.796Z,0
2017-01-26T06:29:00.417Z,0
2017-01-26T06:30:00.445Z,0
2017-01-26T06:31:00.316Z,0
2017-01-26T06:32:00.888Z,0
2017-01-26T06:33:00.912Z,0
2017-01-26T06:34:00.153Z,0
2017-01-26T06:35:00.166Z,0
2017-01-26T06:36:00.840Z,0
2017-01-26T06:37:01.007Z,0
2017-01-26T06:38:00.638Z,0
2017-01-26T06:39:01.462Z,0
2017-01-26T06:40:01.483Z,0
2017-01-26T06:41:01.390Z,0
2017-01-26T06:42:00.743Z,0
2017-01-26T06:43:00.769Z,0
2017-01-26T06:44:01.183Z,0
2017-01-26T06:45:01.619Z,0
2017-01-26T06:46:01.090Z,0
2017-01-26T06:47:01.659Z,0
2017-01-26T06:48:01.272Z,0
2017-01-26T06:49:01.335Z,0
2017-01-26T06:50:01.729Z,4
2017-01-26T06:51:01.211Z,4
2017-01-26T06:52:00.987Z,0
2017-01-26T06:53:01.019Z,0
2017-01-26T06:54:01.436Z,4
2017-01-26T06:55:01.469Z,4
2017-01-26T06:56:01.342Z,4
2017-01-26T06:57:01.911Z,4
2017-01-26T06:58:01.531Z,4
2017-01-26T06:59:01.172Z,8
2017-01-26T07:00:01.185Z,8
2017-01-26T07:01:02.254Z,8
2017-01-26T07:02:01.268Z,8
2017-01-26T07:03:00.867Z,8
2017-01-26T07:04:01.291Z,12
2017-01-26T07:05:02.136Z,12
2017-01-26T07:06:01.594Z,16
2017-01-26T07:07:02.162Z,16
2017-01-26T07:08:01.399Z,20
2017-01-26T07:09:01.411Z,16
2017-01-26T07:10:01.048Z,20
2017-01-26T07:11:02.220Z,24
2017-01-26T07:12:01.494Z,28
2017-01-26T07:13:01.522Z,28
2017-01-26T07:14:01.535Z,28
2017-01-26T07:15:02.364Z,32
2017-01-26T07:16:02.232Z,32
2017-01-26T07:17:02.034Z,36
2017-01-26T07:18:01.663Z,44
2017-01-26T07:19:01.675Z,44
2017-01-26T07:20:02.091Z,48
2017-01-26T07:21:02.361Z,48
2017-01-26T07:22:01.740Z,48
2017-01-26T07:23:02.157Z,56
2017-01-26T07:24:02.585Z,56
2017-01-26T07:25:02.215Z,60
2017-01-26T07:26:01.844Z,64
2017-01-26T07:27:01.724Z,68
2017-01-26T07:28:01.501Z,72
2017-01-26T07:29:01.922Z,80
2017-01-26T07:30:01.952Z,80
2017-01-26T07:31:02.365Z,84
2017-01-26T07:32:02.253Z,84
2017-01-26T07:33:02.809Z,88
2017-01-26T07:34:02.873Z,92
2017-01-26T07:35:02.067Z,100
2017-01-26T07:36:02.097Z,108
2017-01-26T07:37:02.775Z,112
2017-01-26T07:38:01.755Z,116
2017-01-26T07:39:01.777Z,124
2017-01-26T07:40:01.799Z,132
2017-01-26T07:41:02.614Z,140
2017-01-26T07:42:03.285Z,144
2017-01-26T07:43:02.664Z,136
2017-01-26T07:44:02.292Z,136
2017-01-26T07:45:01.909Z,144
2017-01-26T07:46:01.949Z,152
2017-01-26T07:47:02.622Z,160
2017-01-26T07:48:02.000Z,168
2017-01-26T07:49:02.416Z,192
2017-01-26T07:50:03.233Z,188
2017-01-26T07:51:02.474Z,188
2017-01-26T07:52:03.558Z,184
2017-01-26T07:53:02.531Z,192
2017-01-26T07:54:02.168Z,196
2017-01-26T07:55:02.974Z,212
2017-01-26T07:56:02.997Z,224
2017-01-26T07:57:03.265Z,232
2017-01-26T07:58:02.647Z,252
2017-01-26T07:59:03.072Z,240
2017-01-26T08:00:02.699Z,236
2017-01-26T08:01:02.324Z,244
2017-01-26T08:02:03.396Z,252
2017-01-26T08:03:02.780Z,256
2017-01-26T08:04:02.815Z,256
2017-01-26T08:05:03.216Z,264
2017-01-26T08:06:03.249Z,268
2017-01-26T08:07:02.737Z,276
2017-01-26T08:08:03.694Z,284
2017-01-26T08:09:03.322Z,276
2017-01-26T08:10:02.944Z,272
2017-01-26T08:11:02.972Z,292
2017-01-26T08:12:03.654Z,312
2017-01-26T08:13:03.025Z,312
2017-01-26T08:14:03.454Z,308
2017-01-26T08:15:03.077Z,304
2017-01-26T08:16:03.108Z,324
2017-01-26T08:17:03.380Z,340
2017-01-26T08:18:03.545Z,372
2017-01-26T08:19:03.169Z,380
2017-01-26T08:20:03.210Z,380
2017-01-26T08:21:02.855Z,344
2017-01-26T08:22:03.503Z,344
2017-01-26T08:23:03.273Z,368
2017-01-26T08:24:03.699Z,380
2017-01-26T08:25:03.746Z,380
2017-01-26T08:26:03.754Z,388
2017-01-26T08:27:04.415Z,392
2017-01-26T08:28:03.428Z,408
2017-01-26T08:29:03.820Z,424
2017-01-26T08:30:03.458Z,416
2017-01-26T08:31:03.090Z,440
2017-01-26T08:32:04.151Z,440
2017-01-26T08:33:03.532Z,464
2017-01-26T08:34:04.348Z,504
2017-01-26T08:35:03.981Z,500
2017-01-26T08:36:03.202Z,532
2017-01-26T08:37:04.279Z,528
2017-01-26T08:38:04.062Z,548
2017-01-26T08:39:03.317Z,540
2017-01-26T08:40:04.497Z,580
2017-01-26T08:41:03.730Z,588
2017-01-26T08:42:04.403Z,604
2017-01-26T08:43:04.170Z,624
2017-01-26T08:44:03.412Z,612
2017-01-26T08:45:04.221Z,648
2017-01-26T08:46:04.245Z,612
2017-01-26T08:47:04.134Z,624
2017-01-26T08:48:03.934Z,652
2017-01-26T08:49:04.724Z,676
2017-01-26T08:50:03.980Z,664
2017-01-26T08:51:03.580Z,636
2017-01-26T08:52:04.401Z,628
2017-01-26T08:53:03.886Z,656
2017-01-26T08:54:04.055Z,668
2017-01-26T08:55:04.480Z,640
2017-01-26T08:56:04.504Z,676
2017-01-26T08:57:04.518Z,720
2017-01-26T08:58:04.798Z,676
2017-01-26T08:59:04.581Z,732
2017-01-26T09:00:04.208Z,676
2017-01-26T09:01:04.232Z,696
2017-01-26T09:02:04.253Z,692
2017-01-26T09:03:04.925Z,656
2017-01-26T09:04:05.094Z,664
2017-01-26T09:05:05.116Z,700
2017-01-26T09:06:04.756Z,740
2017-01-26T09:07:04.376Z,724
2017-01-26T09:08:04.288Z,688
2017-01-26T09:09:05.227Z,704
2017-01-26T09:10:04.464Z,736
2017-01-26T09:11:04.871Z,788
2017-01-26T09:12:04.900Z,820
2017-01-26T09:13:05.174Z,784
2017-01-26T09:14:04.952Z,848
2017-01-26T09:15:04.181Z,832
2017-01-26T09:16:05.002Z,816
2017-01-26T09:17:04.631Z,784
2017-01-26T09:18:05.299Z,816
2017-01-26T09:19:04.285Z,868
2017-01-26T09:20:04.704Z,824
2017-01-26T09:21:04.726Z,884
2017-01-26T09:22:04.749Z,836
2017-01-26T09:23:05.026Z,884
2017-01-26T09:24:04.808Z,920
2017-01-26T09:25:05.227Z,904
2017-01-26T09:26:04.857Z,916
2017-01-26T09:27:05.298Z,916
2017-01-26T09:28:05.951Z,924
2017-01-26T09:29:05.331Z,916
2017-01-26T09:30:05.752Z,896
2017-01-26T09:31:04.977Z,860
2017-01-26T09:32:05.396Z,896
2017-01-26T09:33:05.278Z,948
2017-01-26T09:34:05.055Z,952
2017-01-26T09:35:04.680Z,1012
2017-01-26T09:36:05.104Z,956
2017-01-26T09:37:05.126Z,948
2017-01-26T09:38:06.189Z,952
2017-01-26T09:39:05.582Z,992
2017-01-26T09:40:05.607Z,1028
2017-01-26T09:41:05.244Z,1008
2017-01-26T09:42:05.652Z,1064
2017-01-26T09:43:06.181Z,1076
2017-01-26T09:44:06.096Z,1084
2017-01-26T09:45:05.322Z,1076
2017-01-26T09:46:05.351Z,1088
2017-01-26T09:47:05.379Z,1096
2017-01-26T09:48:05.408Z,1024
2017-01-26T09:49:05.681Z,1064
2017-01-26T09:50:05.839Z,1040
2017-01-26T09:51:05.870Z,996
2017-01-26T09:52:05.894Z,1008
2017-01-26T09:53:05.948Z,1004
2017-01-26T09:54:06.200Z,1032
2017-01-26T09:55:05.576Z,1016
2017-01-26T09:56:05.997Z,1028
2017-01-26T09:57:05.627Z,1028
2017-01-26T09:58:06.454Z,1100
2017-01-26T09:59:06.329Z,1092
2017-01-26T10:00:06.526Z,1088
2017-01-26T10:01:05.733Z,1176
2017-01-26T10:02:05.758Z,1140
2017-01-26T10:03:06.174Z,1168
2017-01-26T10:04:05.651Z,1124
2017-01-26T10:05:05.439Z,1156
2017-01-26T10:06:06.645Z,1136
2017-01-26T10:07:06.276Z,1168
2017-01-26T10:08:06.297Z,1176
2017-01-26T10:09:06.170Z,1192
2017-01-26T10:10:05.955Z,1256
2017-01-26T10:11:05.967Z,1220
2017-01-26T10:12:06.000Z,1228
2017-01-26T10:13:06.416Z,1164
2017-01-26T10:14:06.694Z,1148
2017-01-26T10:15:06.070Z,1116
2017-01-26T10:16:06.102Z,1056
2017-01-26T10:17:06.523Z,1096
2017-01-26T10:18:06.145Z,1136
2017-01-26T10:19:07.217Z,1212
2017-01-26T10:20:06.594Z,1132
2017-01-26T10:21:06.227Z,1112
2017-01-26T10:22:06.649Z,1132
2017-01-26T10:23:07.068Z,1144
2017-01-26T10:24:06.456Z,1196
2017-01-26T10:25:06.321Z,1220
2017-01-26T10:26:07.140Z,1336
2017-01-26T10:27:06.767Z,1372
2017-01-26T10:28:06.823Z,1396
2017-01-26T10:29:07.115Z,1348
2017-01-26T10:30:06.840Z,1360
2017-01-26T10:31:06.472Z,1408
2017-01-26T10:32:06.490Z,1528
2017-01-26T10:33:06.924Z,1384
2017-01-26T10:34:06.946Z,1360
2017-01-26T10:35:06.881Z,1364
2017-01-26T10:36:07.397Z,1364
2017-01-26T10:37:06.628Z,1360
2017-01-26T10:38:06.246Z,1408
2017-01-26T10:39:06.666Z,1404
2017-01-26T10:40:07.345Z,1352
2017-01-26T10:41:06.728Z,1348
2017-01-26T10:42:06.399Z,1336
2017-01-26T10:43:07.614Z,1324
2017-01-26T10:44:07.582Z,1328
2017-01-26T10:45:07.472Z,1344
2017-01-26T10:46:06.834Z,1288
2017-01-26T10:47:06.868Z,1244
2017-01-26T10:48:06.888Z,1308
2017-01-26T10:49:06.521Z,1372
2017-01-26T10:50:07.589Z,1308
2017-01-26T10:51:06.994Z,1324
2017-01-26T10:52:07.787Z,1368
2017-01-26T10:53:07.412Z,1408
2017-01-26T10:54:06.649Z,1432
2017-01-26T10:55:07.985Z,1448
2017-01-26T10:56:07.089Z,1520
2017-01-26T10:57:07.502Z,1444
2017-01-26T10:58:07.535Z,1480
2017-01-26T10:59:07.572Z,1416
2017-01-26T11:00:07.444Z,1312
2017-01-26T11:01:07.213Z,1392
2017-01-26T11:02:07.242Z,1536
2017-01-26T11:03:06.871Z,1548
2017-01-26T11:04:07.288Z,1388
2017-01-26T11:05:07.562Z,1376
2017-01-26T11:06:07.736Z,1376
2017-01-26T11:07:07.745Z,1432
2017-01-26T11:08:07.817Z,1488
2017-01-26T11:09:07.042Z,1452
2017-01-26T11:10:07.691Z,1412
2017-01-26T11:11:07.863Z,1448
2017-01-26T11:12:07.500Z,1500
2017-01-26T11:13:07.909Z,1492
2017-01-26T11:14:08.330Z,1464
2017-01-26T11:15:07.426Z,1472
2017-01-26T11:16:07.994Z,1552
2017-01-26T11:17:08.440Z,1604
2017-01-26T11:18:08.028Z,1532
2017-01-26T11:19:07.270Z,1440
2017-01-26T11:20:07.938Z,1404
2017-01-26T11:21:08.111Z,1352
2017-01-26T11:22:08.131Z,1480
2017-01-26T11:23:08.560Z,1540
2017-01-26T11:24:07.393Z,1548
2017-01-26T11:25:08.065Z,1728
2017-01-26T11:26:07.448Z,1844
2017-01-26T11:27:07.864Z,1780
2017-01-26T11:28:08.274Z,1872
2017-01-26T11:29:08.307Z,1884
2017-01-26T11:30:08.584Z,1824
2017-01-26T11:31:07.985Z,2044
2017-01-26T11:32:08.387Z,1944
2017-01-26T11:33:08.803Z,1996
2017-01-26T11:34:07.652Z,1944
2017-01-26T11:35:07.676Z,1844
2017-01-26T11:36:09.133Z,1892
2017-01-26T11:37:08.114Z,2012
2017-01-26T11:38:48.236Z,1868
2017-01-26T11:39:30.964Z,1864
2017-01-26T11:40:08.588Z,1880
2017-01-26T11:41:08.070Z,1800
2017-01-26T11:42:08.238Z,1748
2017-01-26T11:43:08.270Z,1664
2017-01-26T11:44:08.684Z,1584
2017-01-26T11:45:09.109Z,1704
2017-01-26T11:46:08.980Z,1712
2017-01-26T11:47:08.354Z,1608
2017-01-26T11:48:08.786Z,1572
2017-01-26T11:49:09.208Z,1692
2017-01-26T11:50:08.829Z,1816
2017-01-26T11:51:08.704Z,1708
2017-01-26T11:52:08.494Z,1648
2017-01-26T11:53:08.513Z,1636
2017-01-26T11:54:08.539Z,1688
2017-01-26T11:55:08.955Z,1616
2017-01-26T11:56:08.441Z,1532
2017-01-26T11:57:08.614Z,1568
2017-01-26T11:58:09.442Z,1548
2017-01-26T11:59:09.055Z,1604
2017-01-26T12:00:09.075Z,2008
2017-01-26T12:01:09.752Z,2424
2017-01-26T12:02:09.132Z,2348
2017-01-26T12:03:09.157Z,2264
2017-01-26T12:04:08.797Z,2184
2017-01-26T12:05:08.810Z,2520
2017-01-26T12:06:08.941Z,2340
2017-01-26T12:07:09.257Z,2584
2017-01-26T12:08:08.877Z,2572
2017-01-26T12:09:08.510Z,2232
2017-01-26T12:10:09.347Z,2252
2017-01-26T12:11:09.270Z,2536
2017-01-26T12:12:08.592Z,2392
2017-01-26T12:13:09.405Z,2456
2017-01-26T12:14:09.841Z,2416
2017-01-26T12:15:08.670Z,2244
2017-01-26T12:16:08.950Z,2492
2017-01-26T12:17:09.111Z,2772
2017-01-26T12:18:08.738Z,2800
2017-01-26T12:19:09.157Z,2780
2017-01-26T12:20:09.577Z,2752
2017-01-26T12:21:09.466Z,2944
2017-01-26T12:22:10.037Z,2304
2017-01-26T12:23:09.660Z,1812
2017-01-26T12:24:10.080Z,2032
2017-01-26T12:25:09.313Z,2148
2017-01-26T12:26:09.990Z,2052
2017-01-26T12:27:09.755Z,1932
2017-01-26T12:28:09.778Z,1900
2017-01-26T12:29:09.801Z,2280
2017-01-26T12:30:09.844Z,2652
2017-01-26T12:31:10.108Z,2792
2017-01-26T12:32:09.885Z,2776
2017-01-26T12:33:09.510Z,3248
2017-01-26T12:34:09.541Z,3028
2017-01-26T12:35:09.947Z,3280
2017-01-26T12:36:09.832Z,3264
2017-01-26T12:37:10.008Z,3256
2017-01-26T12:38:09.632Z,3136
2017-01-26T12:39:10.057Z,2932
2017-01-26T12:40:09.687Z,2672
2017-01-26T12:41:09.967Z,2784
2017-01-26T12:42:09.731Z,2480
2017-01-26T12:43:10.556Z,2740
2017-01-26T12:44:10.579Z,2556
2017-01-26T12:45:09.410Z,2368
2017-01-26T12:46:10.479Z,2304
2017-01-26T12:47:10.263Z,2596
2017-01-26T12:48:10.287Z,2928
2017-01-26T12:49:10.308Z,2848
2017-01-26T12:50:09.935Z,2780
2017-01-26T12:51:11.004Z,3008
2017-01-26T12:52:10.378Z,3220
2017-01-26T12:53:09.611Z,2816
2017-01-26T12:54:10.036Z,2748
2017-01-26T12:55:10.060Z,2672
2017-01-26T12:56:10.734Z,2496
2017-01-26T12:57:09.714Z,2312
2017-01-26T12:58:10.540Z,2344
2017-01-26T12:59:10.555Z,2292
2017-01-26T13:00:10.971Z,2256
2017-01-26T13:01:10.459Z,2468
2017-01-26T13:02:09.836Z,2596
2017-01-26T13:03:10.656Z,2568
2017-01-26T13:04:10.682Z,2428
2017-01-26T13:05:10.314Z,2336
2017-01-26T13:06:11.382Z,2336
2017-01-26T13:07:10.756Z,2404
2017-01-26T13:08:10.380Z,2084
2017-01-26T13:09:10.416Z,2044
2017-01-26T13:10:11.225Z,2056
2017-01-26T13:11:10.486Z,1856
2017-01-26T13:12:10.738Z,1780
2017-01-26T13:13:11.296Z,1976
2017-01-26T13:14:10.934Z,1860
2017-01-26T13:15:10.560Z,1684
2017-01-26T13:16:10.981Z,1720
2017-01-26T13:17:11.113Z,1844
2017-01-26T13:18:10.646Z,1680
2017-01-26T13:19:11.064Z,1516
2017-01-26T13:20:10.687Z,1428
2017-01-26T13:21:11.501Z,1568
2017-01-26T13:22:10.989Z,1536
2017-01-26T13:23:10.369Z,1496
2017-01-26T13:24:11.183Z,1572
2017-01-26T13:25:11.207Z,1684
2017-01-26T13:26:10.445Z,1584
2017-01-26T13:27:11.917Z,1396
2017-01-26T13:28:11.286Z,1284
2017-01-26T13:29:11.306Z,1352
2017-01-26T13:30:11.739Z,1468
2017-01-26T13:31:11.389Z,1496
2017-01-26T13:32:12.091Z,1372
2017-01-26T13:33:11.812Z,1356
2017-01-26T13:34:11.457Z,1388
2017-01-26T13:35:11.463Z,1304
2017-01-26T13:36:11.107Z,1320
2017-01-26T13:37:11.764Z,1212
2017-01-26T13:38:11.553Z,1320
2017-01-26T13:39:11.559Z,1480
2017-01-26T13:40:11.201Z,1400
2017-01-26T13:41:11.618Z,1188
2017-01-26T13:42:11.913Z,1384
2017-01-26T13:43:12.060Z,1392
2017-01-26T13:44:12.110Z,1324
2017-01-26T13:45:11.316Z,1308
2017-01-26T13:46:11.757Z,1324
2017-01-26T13:47:12.417Z,1420
2017-01-26T13:48:11.408Z,1440
2017-01-26T13:49:11.412Z,1328
2017-01-26T13:50:11.835Z,1352
2017-01-26T13:51:11.860Z,1284
2017-01-26T13:52:12.549Z,1264
2017-01-26T13:53:11.913Z,1392
2017-01-26T13:54:11.543Z,1300
2017-01-26T13:55:11.973Z,1276
2017-01-26T13:56:11.198Z,1420
2017-01-26T13:57:12.015Z,1552
2017-01-26T13:58:11.885Z,1564
2017-01-26T13:59:12.457Z,1524
2017-01-26T14:00:12.478Z,1452
2017-01-26T14:01:12.509Z,1376
2017-01-26T14:02:11.342Z,1320
2017-01-26T14:03:12.025Z,1300
2017-01-26T14:04:11.825Z,1176
2017-01-26T14:05:11.826Z,1172
2017-01-26T14:06:12.630Z,1372
2017-01-26T14:07:12.264Z,1368
2017-01-26T14:08:12.538Z,1292